Terminal Aerodrome Forecast
Issued by NWS

Current Version | Previous Version | Text Only | Print | Product List | Glossary Off
Versions: 1 2 3 4 5 6 7 8 9 10 11 12 13 14 15 16 17 18 19

000
FTUS41 KILN 302000 AAB
TAFLUK
TAF AMD
KLUK 302020Z 3020/0118 35010KT P6SM -SHRA SCT050 BKN070
     FM302300 34010KT P6SM SCT045
     FM011300 36007G15KT P6SM SCT025
     FM011600 35009G18KT P6SM BKN035=

USA.gov is the U.S. government's official web portal to all federal, state and local government web resources and services.